Time;durP1;ratioP1;P1;durP2;ratioP2;P2;SDS_P1;SDS_P2;PMS_P1;PMS_P2;Temp;Humidity;BMP_temperature;BMP_pressure;BME280_temperature;BME280_humidity;BME280_pressure;Samples;Min_cycle;Max_cycle;Signal;HPM_P1;HPM_P2
2024/01/07 00:01:27;;;;;;;;;;;;;;;6.77;82.47;101803.91;7299317;19;19927;-67
2024/01/07 00:03:54;;;;;;;;;;;;;;;6.76;82.87;101804.84;7293481;19;19934;-67
2024/01/07 00:06:21;;;;;;;;;;;;;;;6.73;82.13;101807.66;7289475;19;20221;-67
2024/01/07 00:08:48;;;;;;;;;;;;;;;6.74;82.48;101804.13;7284120;19;19927;-67
2024/01/07 00:11:15;;;;;;;;;;;;;;;6.74;83.35;101811.97;7286749;19;20186;-67
2024/01/07 00:13:42;;;;;;;;;;;;;;;6.73;84.50;101815.50;7297455;19;20580;-68
2024/01/07 00:16:09;;;;;;;;;;;;;;;6.74;83.18;101811.97;7296616;19;19930;-69
2024/01/07 00:18:36;;;;;;;;;;;;;;;6.68;81.68;101822.84;7304528;19;19915;-68
2024/01/07 00:21:04;;;;;;;;;;;;;;;6.64;82.80;101824.81;7304646;19;20060;-67
2024/01/07 00:23:31;;;;;;;;;;;;;;;6.63;83.17;101825.75;7302434;19;19949;-67
2024/01/07 00:25:57;;;;;;;;;;;;;;;6.57;82.23;101831.38;7298240;19;19926;-69
2024/01/07 00:28:24;;;;;;;;;;;;;;;6.50;81.60;101827.53;7301631;19;19922;-67
2024/01/07 00:30:51;;;;;;;;;;;;;;;6.48;81.95;101841.63;7290788;19;20241;-68
2024/01/07 00:33:18;;;;;;;;;;;;;;;6.41;81.33;101839.41;7301822;19;19922;-69
2024/01/07 00:35:45;;;;;;;;;;;;;;;6.38;81.31;101833.56;7295413;19;19918;-67
2024/01/07 00:38:12;;;;;;;;;;;;;;;6.37;83.22;101837.09;7300999;19;19960;-67
2024/01/07 00:40:39;;;;;;;;;;;;;;;6.30;82.15;101834.03;7279243;19;20406;-68
2024/01/07 00:43:06;;;;;;;;;;;;;;;6.30;80.40;101846.25;7288733;19;20024;-67
2024/01/07 00:45:33;;;;;;;;;;;;;;;6.24;80.36;101838.84;7291286;19;19914;-68
2024/01/07 00:48:00;;;;;;;;;;;;;;;6.22;82.55;101841.56;7292038;19;19923;-67
2024/01/07 00:50:27;;;;;;;;;;;;;;;6.18;80.48;101849.69;7295650;19;20013;-67
2024/01/07 00:52:54;;;;;;;;;;;;;;;6.12;80.40;101840.47;7285616;19;20482;-69
2024/01/07 00:55:23;;;;;;;;;;;;;;;6.13;81.74;101849.16;7295819;19;20021;-69
2024/01/07 00:57:50;;;;;;;;;;;;;;;6.15;82.38;101852.47;7288227;19;19919;-68
2024/01/07 01:00:17;;;;;;;;;;;;;;;6.13;82.87;101847.38;7298203;19;19926;-67
2024/01/07 01:02:45;;;;;;;;;;;;;;;6.15;82.75;101853.31;7304285;19;20415;-69
2024/01/07 01:05:11;;;;;;;;;;;;;;;6.17;82.02;101846.25;7278096;19;20515;-67
2024/01/07 01:07:38;;;;;;;;;;;;;;;6.16;83.28;101855.00;7281180;19;20209;-67
2024/01/07 01:10:05;;;;;;;;;;;;;;;6.10;82.03;101865.00;7285248;19;19982;-69
2024/01/07 01:12:40;;;;;;;;;;;;;;;6.08;81.36;101859.06;7295422;19;20356;-68
2024/01/07 01:15:07;;;;;;;;;;;;;;;6.09;82.99;101855.50;7298749;19;19991;-68
2024/01/07 01:17:34;;;;;;;;;;;;;;;6.08;81.88;101862.50;7298159;19;20824;-67
2024/01/07 01:20:04;;;;;;;;;;;;;;;6.08;81.73;101859.06;7296339;19;19936;-69
2024/01/07 01:22:37;;;;;;;;;;;;;;;6.10;81.48;101858.00;7301918;19;20260;-68
2024/01/07 01:25:05;;;;;;;;;;;;;;;6.09;81.75;101856.34;7297467;19;20364;-66
2024/01/07 01:27:31;;;;;;;;;;;;;;;6.07;80.64;101862.59;7292637;19;19934;-67
2024/01/07 01:29:58;;;;;;;;;;;;;;;6.07;81.45;101860.81;7289340;19;19959;-67
2024/01/07 01:32:25;;;;;;;;;;;;;;;6.04;81.25;101861.03;7298336;19;19919;-69
2024/01/07 01:34:52;;;;;;;;;;;;;;;5.97;81.17;101863.19;7302841;19;19911;-66
2024/01/07 01:37:19;;;;;;;;;;;;;;;6.01;83.30;101863.81;7296930;19;20491;-67
2024/01/07 01:39:47;;;;;;;;;;;;;;;5.97;82.08;101865.81;7294600;19;19946;-66
2024/01/07 01:42:14;;;;;;;;;;;;;;;5.92;80.75;101877.47;7297815;19;20526;-67
2024/01/07 01:44:42;;;;;;;;;;;;;;;5.93;80.80;101876.53;7299486;19;20355;-66
2024/01/07 01:47:10;;;;;;;;;;;;;;;5.93;81.20;101881.78;7304322;19;19930;-67
2024/01/07 01:49:38;;;;;;;;;;;;;;;5.87;79.84;101879.53;7299252;19;21380;-68
2024/01/07 01:52:05;;;;;;;;;;;;;;;5.85;79.90;101881.38;7307372;19;19967;-68
2024/01/07 01:54:32;;;;;;;;;;;;;;;5.82;78.80;101882.41;7295373;19;19923;-67
2024/01/07 01:56:59;;;;;;;;;;;;;;;5.82;79.17;101881.56;7305393;19;19911;-67
2024/01/07 01:59:28;;;;;;;;;;;;;;;5.79;78.84;101882.56;7299064;19;20479;-69
2024/01/07 02:01:55;;;;;;;;;;;;;;;5.80;80.41;101884.25;7307184;19;20033;-68
2024/01/07 02:04:22;;;;;;;;;;;;;;;5.78;80.35;101887.91;7292104;19;19945;-67
2024/01/07 02:06:49;;;;;;;;;;;;;;;5.80;81.44;101888.66;7297937;19;19957;-67
2024/01/07 02:09:16;;;;;;;;;;;;;;;5.79;78.56;101887.00;7291695;19;19922;-67
2024/01/07 02:11:43;;;;;;;;;;;;;;;5.78;78.14;101888.75;7291655;19;19923;-66
2024/01/07 02:14:10;;;;;;;;;;;;;;;5.79;78.24;101895.63;7291695;19;19910;-67
2024/01/07 02:16:36;;;;;;;;;;;;;;;5.79;78.22;101889.59;7301524;19;20031;-66
2024/01/07 02:19:05;;;;;;;;;;;;;;;5.79;78.17;101894.81;7299639;19;20377;-68
2024/01/07 02:21:32;;;;;;;;;;;;;;;5.75;77.70;101899.38;7306172;19;19947;-69
2024/01/07 02:24:04;;;;;;;;;;;;;;;5.76;77.39;101900.22;7310424;19;19964;-67
2024/01/07 02:26:32;;;;;;;;;;;;;;;5.75;76.68;101904.59;7299495;19;20205;-68
2024/01/07 02:28:59;;;;;;;;;;;;;;;5.76;76.20;101908.91;7290198;19;20934;-67
2024/01/07 02:31:26;;;;;;;;;;;;;;;5.74;75.72;101910.75;7291808;19;20235;-68
2024/01/07 02:33:52;;;;;;;;;;;;;;;5.76;75.15;101903.66;7303277;19;19929;-66
2024/01/07 02:36:20;;;;;;;;;;;;;;;5.77;75.55;101907.13;7311047;19;19918;-67
2024/01/07 02:38:46;;;;;;;;;;;;;;;5.79;75.43;101913.09;7296376;19;19941;-68
2024/01/07 02:41:13;;;;;;;;;;;;;;;5.82;76.27;101915.50;7292838;19;19914;-66
2024/01/07 02:43:40;;;;;;;;;;;;;;;5.83;74.64;101912.81;7291902;19;19929;-67
2024/01/07 02:46:07;;;;;;;;;;;;;;;5.84;73.91;101908.44;7291826;19;19923;-68
2024/01/07 02:48:34;;;;;;;;;;;;;;;5.84;73.30;101913.66;7309138;19;19916;-67
2024/01/07 02:51:03;;;;;;;;;;;;;;;5.87;72.43;101909.09;7297243;19;20357;-67
2024/01/07 02:53:31;;;;;;;;;;;;;;;5.92;72.28;101914.03;7302498;19;19998;-67
2024/01/07 02:55:59;;;;;;;;;;;;;;;5.88;71.40;101909.94;7309012;19;20316;-67
2024/01/07 02:58:26;;;;;;;;;;;;;;;5.84;71.81;101911.84;7317040;19;19962;-67
2024/01/07 03:00:53;;;;;;;;;;;;;;;5.84;71.74;101913.66;7295858;19;19923;-67
2024/01/07 03:03:20;;;;;;;;;;;;;;;5.80;71.13;101909.53;7293733;19;20658;-67
2024/01/07 03:05:47;;;;;;;;;;;;;;;5.78;71.27;101916.63;7308031;19;20539;-66
2024/01/07 03:08:14;;;;;;;;;;;;;;;5.76;72.58;101902.81;7297877;19;19998;-66
2024/01/07 03:10:40;;;;;;;;;;;;;;;5.76;72.41;101902.81;7285194;19;19923;-67
2024/01/07 03:13:07;;;;;;;;;;;;;;;5.79;72.86;101908.69;7294583;19;20441;-66
2024/01/07 03:15:34;;;;;;;;;;;;;;;5.78;72.56;101900.97;7286774;19;19926;-68
2024/01/07 03:18:01;;;;;;;;;;;;;;;5.78;71.28;101907.03;7304096;19;20233;-66
2024/01/07 03:20:28;;;;;;;;;;;;;;;5.77;71.43;101904.50;7293726;19;19927;-67
2024/01/07 03:22:55;;;;;;;;;;;;;;;5.78;70.46;101904.44;7289160;19;19915;-66
2024/01/07 03:25:22;;;;;;;;;;;;;;;5.77;72.02;101921.03;7290664;19;20041;-68
2024/01/07 03:27:48;;;;;;;;;;;;;;;5.72;71.51;101911.78;7295793;19;19929;-67
2024/01/07 03:30:15;;;;;;;;;;;;;;;5.71;70.18;101908.34;7292592;19;19915;-67
2024/01/07 03:32:42;;;;;;;;;;;;;;;5.69;71.49;101914.59;7288210;19;19934;-67
2024/01/07 03:35:09;;;;;;;;;;;;;;;5.66;71.23;101913.00;7301176;19;19998;-67
2024/01/07 03:37:36;;;;;;;;;;;;;;;5.66;73.24;101917.38;7291684;19;20023;-68
2024/01/07 03:40:03;;;;;;;;;;;;;;;5.63;71.93;101913.22;7296491;19;19919;-66
2024/01/07 03:42:30;;;;;;;;;;;;;;;5.64;73.25;101919.28;7285262;19;20581;-67
2024/01/07 03:44:57;;;;;;;;;;;;;;;5.64;72.98;101925.31;7284689;19;20114;-67
2024/01/07 03:47:24;;;;;;;;;;;;;;;5.60;73.15;101918.59;7290113;19;19927;-67
2024/01/07 03:49:51;;;;;;;;;;;;;;;5.58;73.23;101916.09;7291278;19;20765;-66
2024/01/07 03:52:18;;;;;;;;;;;;;;;5.61;73.56;101930.72;7279365;19;20005;-67
2024/01/07 03:54:45;;;;;;;;;;;;;;;5.60;74.02;101923.81;7282334;19;19915;-68
2024/01/07 03:57:12;;;;;;;;;;;;;;;5.58;73.88;101926.53;7292391;19;19978;-67
2024/01/07 03:59:39;;;;;;;;;;;;;;;5.59;73.43;101935.19;7292337;19;19927;-66
2024/01/07 04:02:06;;;;;;;;;;;;;;;5.59;73.85;101935.19;7280111;19;20246;-67
2024/01/07 04:04:33;;;;;;;;;;;;;;;5.59;74.52;101933.41;7303256;19;20274;-66
2024/01/07 04:06:59;;;;;;;;;;;;;;;5.57;74.71;101932.69;7284222;19;19923;-67
2024/01/07 04:09:26;;;;;;;;;;;;;;;5.54;74.23;101935.47;7294964;19;20779;-66
2024/01/07 04:11:53;;;;;;;;;;;;;;;5.52;74.15;101939.97;7299445;19;20793;-68
2024/01/07 04:14:20;;;;;;;;;;;;;;;5.51;74.57;101938.28;7292575;19;19915;-68
2024/01/07 04:16:47;;;;;;;;;;;;;;;5.47;74.55;101943.78;7295647;19;19926;-66
2024/01/07 04:19:13;;;;;;;;;;;;;;;5.45;75.49;101936.03;7301580;19;19923;-68
2024/01/07 04:21:45;;;;;;;;;;;;;;;5.43;75.48;101943.13;7306552;19;19915;-66
2024/01/07 04:24:12;;;;;;;;;;;;;;;5.42;76.60;101938.84;7286842;19;20929;-66
2024/01/07 04:26:39;;;;;;;;;;;;;;;5.36;74.87;101940.97;7301873;19;20363;-67
2024/01/07 04:29:06;;;;;;;;;;;;;;;5.35;75.47;101937.50;7291325;19;19942;-66
2024/01/07 04:31:33;;;;;;;;;;;;;;;5.34;75.18;101940.19;7278410;19;19923;-67
2024/01/07 04:34:00;;;;;;;;;;;;;;;5.32;75.24;101942.94;7283309;19;19922;-66
2024/01/07 04:36:30;;;;;;;;;;;;;;;5.33;75.85;101946.38;7297630;19;21893;-68
2024/01/07 04:38:57;;;;;;;;;;;;;;;5.31;75.75;101946.47;7301959;19;19911;-68
2024/01/07 04:41:24;;;;;;;;;;;;;;;5.32;76.48;101947.31;7292263;19;19918;-68
2024/01/07 04:43:51;;;;;;;;;;;;;;;5.33;75.85;101947.22;7298256;19;19923;-67
2024/01/07 04:46:21;;;;;;;;;;;;;;;5.30;75.72;101947.38;7301557;19;20733;-67
2024/01/07 04:48:48;;;;;;;;;;;;;;;5.31;75.52;101948.22;7306801;19;19923;-66
2024/01/07 04:51:15;;;;;;;;;;;;;;;5.30;75.16;101950.00;7298431;19;19986;-66
2024/01/07 04:53:42;;;;;;;;;;;;;;;5.31;74.30;101948.22;7301718;19;19925;-66
2024/01/07 04:56:10;;;;;;;;;;;;;;;5.31;74.66;101953.44;7294412;19;19939;-67
2024/01/07 04:58:41;;;;;;;;;;;;;;;5.31;74.39;101943.00;7281461;19;19926;-67
2024/01/07 05:01:08;;;;;;;;;;;;;;;5.31;73.50;101948.22;7295073;19;19971;-67
2024/01/07 05:03:35;;;;;;;;;;;;;;;5.32;74.58;101939.47;7294696;19;19922;-67
2024/01/07 05:06:02;;;;;;;;;;;;;;;5.33;74.65;101951.59;7275244;19;20370;-67
2024/01/07 05:08:29;;;;;;;;;;;;;;;5.33;74.60;101955.03;7291641;19;20235;-66
2024/01/07 05:10:56;;;;;;;;;;;;;;;5.33;74.11;101955.03;7287324;19;19915;-66
2024/01/07 05:13:23;;;;;;;;;;;;;;;5.33;74.68;101952.44;7280642;19;20589;-67
2024/01/07 05:15:53;;;;;;;;;;;;;;;5.35;73.62;101949.72;7306732;19;19918;-66
2024/01/07 05:18:21;;;;;;;;;;;;;;;5.37;74.14;101969.59;7290235;19;19919;-66
2024/01/07 05:20:48;;;;;;;;;;;;;;;5.40;73.16;101969.38;7286267;19;21769;-68
2024/01/07 05:23:15;;;;;;;;;;;;;;;5.38;72.71;101975.66;7284713;19;20172;-67
2024/01/07 05:25:43;;;;;;;;;;;;;;;5.36;73.97;101975.72;7296383;19;19935;-67
2024/01/07 05:28:20;;;;;;;;;;;;;;;5.38;73.10;101976.47;7282907;19;19919;-67
2024/01/07 05:30:49;;;;;;;;;;;;;;;5.37;72.54;101974.81;7287484;19;19922;-66
2024/01/07 05:33:16;;;;;;;;;;;;;;;5.38;72.35;101980.88;7302749;19;19938;-68
2024/01/07 05:35:46;;;;;;;;;;;;;;;5.38;73.41;101984.31;7284141;19;19930;-68
2024/01/07 05:38:12;;;;;;;;;;;;;;;5.37;72.94;101987.00;7305991;19;20273;-67
2024/01/07 05:40:39;;;;;;;;;;;;;;;5.32;72.30;101992.50;7297366;19;19941;-68
2024/01/07 05:43:06;;;;;;;;;;;;;;;5.30;72.87;102002.16;7293966;19;21961;-67
2024/01/07 05:45:33;;;;;;;;;;;;;;;5.30;72.53;101999.56;7292134;19;19918;-67
2024/01/07 05:48:00;;;;;;;;;;;;;;;5.28;73.11;102006.66;7294825;19;20455;-68
2024/01/07 05:50:27;;;;;;;;;;;;;;;5.27;73.30;102004.97;7284541;19;19926;-67
2024/01/07 05:52:54;;;;;;;;;;;;;;;5.28;73.53;102006.66;7292916;19;20700;-67
2024/01/07 05:55:21;;;;;;;;;;;;;;;5.28;73.11;102014.47;7289616;19;19920;-68
2024/01/07 05:57:48;;;;;;;;;;;;;;;5.23;72.90;102013.91;7308616;19;19918;-66
2024/01/07 06:00:15;;;;;;;;;;;;;;;5.24;72.75;102009.50;7287856;19;20538;-66
2024/01/07 06:02:42;;;;;;;;;;;;;;;5.22;73.04;102011.38;7296327;19;19929;-67
2024/01/07 06:05:09;;;;;;;;;;;;;;;5.21;73.36;102009.69;7290564;19;19914;-67
2024/01/07 06:07:36;;;;;;;;;;;;;;;5.19;73.35;102020.22;7282992;19;19918;-67
2024/01/07 06:10:03;;;;;;;;;;;;;;;5.20;73.21;102018.44;7296457;19;20752;-66
2024/01/07 06:12:30;;;;;;;;;;;;;;;5.19;72.91;102022.81;7290598;19;19915;-68
2024/01/07 06:14:57;;;;;;;;;;;;;;;5.21;72.45;102025.34;7296784;19;19919;-66
2024/01/07 06:17:24;;;;;;;;;;;;;;;5.21;72.37;102033.19;7303906;19;19930;-67
2024/01/07 06:19:51;;;;;;;;;;;;;;;5.21;72.71;102034.03;7295680;19;20248;-66
2024/01/07 06:22:18;;;;;;;;;;;;;;;5.21;72.56;102028.81;7285556;19;19922;-67
2024/01/07 06:24:45;;;;;;;;;;;;;;;5.20;74.21;102029.72;7281058;19;19953;-67
2024/01/07 06:27:13;;;;;;;;;;;;;;;5.21;74.20;102035.78;7305655;19;19963;-67
2024/01/07 06:29:46;;;;;;;;;;;;;;;5.23;72.62;102033.94;7293306;19;19929;-67
2024/01/07 06:32:13;;;;;;;;;;;;;;;5.21;73.33;102039.22;7297560;19;19923;-67
2024/01/07 06:34:40;;;;;;;;;;;;;;;5.19;72.89;102038.47;7293055;19;20107;-68
2024/01/07 06:37:10;;;;;;;;;;;;;;;5.19;74.69;102041.06;7287173;19;20375;-66
2024/01/07 06:39:37;;;;;;;;;;;;;;;5.18;74.06;102040.22;7299147;19;19923;-65
2024/01/07 06:42:04;;;;;;;;;;;;;;;5.20;74.18;102040.16;7288565;19;20027;-65
2024/01/07 06:44:31;;;;;;;;;;;;;;;5.21;74.99;102046.22;7294692;19;19947;-66
2024/01/07 06:46:58;;;;;;;;;;;;;;;5.21;74.60;102046.22;7304847;19;20941;-67
2024/01/07 06:49:25;;;;;;;;;;;;;;;5.16;75.11;102062.13;7299534;19;20474;-66
2024/01/07 06:51:52;;;;;;;;;;;;;;;5.12;74.48;102053.66;7298491;19;20861;-65
2024/01/07 06:54:20;;;;;;;;;;;;;;;5.14;76.16;102061.38;7292400;19;20214;-67
2024/01/07 06:56:49;;;;;;;;;;;;;;;5.14;76.78;102063.97;7296254;19;19991;-66
2024/01/07 06:59:16;;;;;;;;;;;;;;;5.11;75.64;102067.63;7287817;19;20441;-65
2024/01/07 07:01:43;;;;;;;;;;;;;;;5.13;77.29;102080.53;7283893;19;19934;-65
2024/01/07 07:04:10;;;;;;;;;;;;;;;5.13;77.63;102083.16;7290026;19;19982;-65
2024/01/07 07:06:37;;;;;;;;;;;;;;;5.13;76.74;102076.19;7293961;19;19926;-65
2024/01/07 07:09:04;;;;;;;;;;;;;;;5.14;76.77;102079.63;7292381;19;21110;-68
2024/01/07 07:11:31;;;;;;;;;;;;;;;5.13;77.58;102075.31;7293268;19;19919;-68
2024/01/07 07:13:58;;;;;;;;;;;;;;;5.11;77.99;102078.03;7294227;19;19978;-65
2024/01/07 07:16:27;;;;;;;;;;;;;;;5.11;78.27;102083.25;7296174;19;19945;-66
2024/01/07 07:18:55;;;;;;;;;;;;;;;5.10;78.90;102089.41;7294943;19;22273;-67
2024/01/07 07:21:23;;;;;;;;;;;;;;;5.10;78.39;102091.16;7293705;19;20236;-65
2024/01/07 07:23:50;;;;;;;;;;;;;;;5.09;78.90;102087.72;7291659;19;20445;-67
2024/01/07 07:26:17;;;;;;;;;;;;;;;5.10;79.37;102097.22;7294761;19;19923;-66
2024/01/07 07:28:49;;;;;;;;;;;;;;;5.13;79.91;102093.59;7301404;19;19927;-65
2024/01/07 07:31:16;;;;;;;;;;;;;;;5.11;79.70;102095.47;7301750;19;19949;-66
2024/01/07 07:33:46;;;;;;;;;;;;;;;5.09;80.40;102103.38;7286476;19;20547;-65
2024/01/07 07:36:14;;;;;;;;;;;;;;;5.08;79.99;102104.28;7287279;19;20724;-65
2024/01/07 07:38:41;;;;;;;;;;;;;;;5.09;80.05;102108.59;7288392;19;20644;-67
2024/01/07 07:41:08;;;;;;;;;;;;;;;5.02;79.86;102102.03;7285754;19;19915;-68
2024/01/07 07:43:35;;;;;;;;;;;;;;;5.02;80.51;102102.03;7291142;19;20905;-66
2024/01/07 07:46:03;;;;;;;;;;;;;;;5.02;80.93;102120.31;7288494;19;20524;-66
2024/01/07 07:48:30;;;;;;;;;;;;;;;5.00;81.39;102116.91;7291322;19;19934;-66
2024/01/07 07:50:57;;;;;;;;;;;;;;;4.98;82.00;102131.78;7297645;19;19919;-66
2024/01/07 07:53:25;;;;;;;;;;;;;;;4.97;81.93;102129.28;7298086;19;19929;-65
2024/01/07 07:55:56;;;;;;;;;;;;;;;4.98;82.12;102123.97;7295119;19;19919;-66
2024/01/07 07:58:23;;;;;;;;;;;;;;;4.99;82.87;102122.22;7291810;19;19926;-66
2024/01/07 08:00:50;;;;;;;;;;;;;;;4.98;82.35;102129.19;7284468;19;21098;-67
2024/01/07 08:03:19;;;;;;;;;;;;;;;4.99;82.13;102130.03;7296366;19;20019;-65
2024/01/07 08:05:49;;;;;;;;;;;;;;;5.02;82.07;102137.72;7288049;19;19915;-66
2024/01/07 08:08:17;;;;;;;;;;;;;;;5.01;82.08;102136.03;7291997;19;19919;-68
2024/01/07 08:10:43;;;;;;;;;;;;;;;5.01;81.96;102147.28;7299886;19;19926;-65
2024/01/07 08:13:11;;;;;;;;;;;;;;;5.02;82.32;102146.38;7304755;19;20809;-65
2024/01/07 08:15:39;;;;;;;;;;;;;;;5.01;82.22;102151.66;7292339;19;19947;-67
2024/01/07 08:18:06;;;;;;;;;;;;;;;5.02;82.49;102148.13;7294798;19;19923;-65
2024/01/07 08:20:34;;;;;;;;;;;;;;;5.04;83.82;102154.94;7301223;19;20182;-66
2024/01/07 08:23:01;;;;;;;;;;;;;;;5.05;83.13;102154.03;7308530;19;22339;-66
2024/01/07 08:25:28;;;;;;;;;;;;;;;5.04;83.43;102147.13;7305399;19;20013;-66
2024/01/07 08:27:55;;;;;;;;;;;;;;;5.02;82.73;102154.19;7299046;19;19922;-66
2024/01/07 08:30:23;;;;;;;;;;;;;;;5.03;82.31;102162.84;7294490;19;20244;-66
2024/01/07 08:32:50;;;;;;;;;;;;;;;5.02;83.12;102155.97;7292430;19;20499;-67
2024/01/07 08:35:17;;;;;;;;;;;;;;;5.01;84.29;102162.09;7293057;19;19910;-67
2024/01/07 08:37:46;;;;;;;;;;;;;;;5.01;84.01;102175.13;7297313;19;19927;-66
2024/01/07 08:40:14;;;;;;;;;;;;;;;5.03;84.18;102187.16;7300036;19;19923;-66
2024/01/07 08:42:41;;;;;;;;;;;;;;;5.03;84.73;102179.31;7282906;19;19923;-65
2024/01/07 08:45:08;;;;;;;;;;;;;;;5.07;84.42;102193.06;7294592;19;19967;-66
2024/01/07 08:47:36;;;;;;;;;;;;;;;5.06;84.44;102191.38;7277208;19;19956;-66
2024/01/07 08:50:08;;;;;;;;;;;;;;;5.03;84.29;102184.53;7284058;19;20360;-65
2024/01/07 08:52:35;;;;;;;;;;;;;;;5.08;84.62;102184.28;7290170;19;19940;-66
2024/01/07 08:55:05;;;;;;;;;;;;;;;5.09;84.19;102197.25;7290444;19;20338;-66
2024/01/07 08:57:33;;;;;;;;;;;;;;;5.06;83.63;102196.59;7296906;19;19922;-66
2024/01/07 09:00:00;;;;;;;;;;;;;;;5.09;84.01;102194.66;7287247;19;20552;-66
2024/01/07 09:02:27;;;;;;;;;;;;;;;5.08;83.71;102198.19;7298351;19;19918;-65
2024/01/07 09:04:57;;;;;;;;;;;;;;;5.10;83.29;102204.16;7293548;19;20827;-66
2024/01/07 09:07:25;;;;;;;;;;;;;;;5.13;82.76;102208.34;7291111;19;19919;-67
2024/01/07 09:09:55;;;;;;;;;;;;;;;5.13;83.33;102197.91;7283365;19;20586;-66
2024/01/07 09:12:22;;;;;;;;;;;;;;;5.18;84.05;102204.56;7288193;19;19977;-66
2024/01/07 09:14:49;;;;;;;;;;;;;;;5.20;83.13;102208.88;7301399;19;21424;-65
2024/01/07 09:17:17;;;;;;;;;;;;;;;5.22;83.05;102212.25;7281476;19;20341;-65
2024/01/07 09:19:44;;;;;;;;;;;;;;;5.23;82.84;102211.34;7287772;19;19938;-65
2024/01/07 09:22:12;;;;;;;;;;;;;;;5.26;81.92;102211.16;7310387;19;19956;-67
2024/01/07 09:24:40;;;;;;;;;;;;;;;5.27;82.48;102218.06;7290959;19;21605;-65
2024/01/07 09:27:08;;;;;;;;;;;;;;;5.29;81.94;102222.25;7286425;19;19994;-65
2024/01/07 09:29:36;;;;;;;;;;;;;;;5.32;81.97;102222.09;7299657;19;20403;-65
2024/01/07 09:32:05;;;;;;;;;;;;;;;5.33;81.28;102225.56;7285186;19;19919;-66
2024/01/07 09:34:33;;;;;;;;;;;;;;;5.35;81.53;102226.28;7289473;19;19940;-66
2024/01/07 09:37:02;;;;;;;;;;;;;;;5.37;80.30;102230.50;7286938;19;19933;-65
2024/01/07 09:39:29;;;;;;;;;;;;;;;5.38;78.92;102241.81;7294409;19;20906;-65
2024/01/07 09:41:57;;;;;;;;;;;;;;;5.42;78.65;102230.25;7293754;19;20689;-68
2024/01/07 09:44:24;;;;;;;;;;;;;;;5.47;78.88;102229.09;7284043;19;19918;-66
2024/01/07 09:46:54;;;;;;;;;;;;;;;5.48;77.94;102228.16;7299482;19;20008;-65
2024/01/07 09:49:22;;;;;;;;;;;;;;;5.49;77.08;102231.59;7290369;19;20210;-66
2024/01/07 09:51:52;;;;;;;;;;;;;;;5.47;77.43;102236.06;7298777;19;19923;-65
2024/01/07 09:54:22;;;;;;;;;;;;;;;5.48;78.19;102254.25;7297318;19;19930;-66
2024/01/07 09:56:56;;;;;;;;;;;;;;;5.47;76.90;102246.50;7289037;19;19937;-65
2024/01/07 09:59:27;;;;;;;;;;;;;;;5.52;77.09;102254.91;7288704;19;19994;-66
2024/01/07 10:01:55;;;;;;;;;;;;;;;5.56;77.17;102261.66;7308456;19;19923;-66
2024/01/07 10:04:25;;;;;;;;;;;;;;;5.56;77.06;102267.72;7301773;19;19922;-65
2024/01/07 10:06:54;;;;;;;;;;;;;;;5.61;76.01;102257.00;7302965;19;19917;-67
2024/01/07 10:09:26;;;;;;;;;;;;;;;5.64;76.77;102249.00;7305898;19;20573;-65
2024/01/07 10:11:59;;;;;;;;;;;;;;;5.69;76.38;102251.38;7305136;19;20002;-64
2024/01/07 10:14:31;;;;;;;;;;;;;;;5.69;76.13;102260.03;7293657;19;20211;-65
2024/01/07 10:17:00;;;;;;;;;;;;;;;5.70;76.40;102261.72;7280461;19;20398;-66
2024/01/07 10:19:28;;;;;;;;;;;;;;;5.75;75.61;102267.53;7296997;19;19926;-65
2024/01/07 10:22:04;;;;;;;;;;;;;;;5.74;76.25;102262.41;7299235;19;19918;-66
2024/01/07 10:24:40;;;;;;;;;;;;;;;5.83;75.92;102262.72;7303947;19;19918;-66
2024/01/07 10:27:09;;;;;;;;;;;;;;;5.84;75.68;102264.38;7299473;19;19922;-66
2024/01/07 10:29:39;;;;;;;;;;;;;;;5.84;77.06;102266.19;7286978;19;19955;-67
2024/01/07 10:32:07;;;;;;;;;;;;;;;5.89;76.76;102269.41;7312433;19;20720;-67
2024/01/07 10:34:36;;;;;;;;;;;;;;;5.93;76.24;102273.53;7295340;19;19926;-67
2024/01/07 10:37:07;;;;;;;;;;;;;;;5.89;75.82;102267.63;7302242;19;20220;-68
2024/01/07 10:39:36;;;;;;;;;;;;;;;5.92;76.20;102275.28;7305586;19;20137;-68
2024/01/07 10:42:07;;;;;;;;;;;;;;;5.85;75.75;102276.53;7296412;19;20228;-70
2024/01/07 10:44:35;;;;;;;;;;;;;;;5.84;75.78;102266.19;7301652;19;20254;-69
2024/01/07 10:47:13;;;;;;;;;;;;;;;5.80;75.32;102269.88;7310242;19;20041;-69
2024/01/07 10:49:44;;;;;;;;;;;;;;;5.82;76.54;102255.81;7299742;19;20130;-67
2024/01/07 10:52:13;;;;;;;;;;;;;;;5.86;76.57;102256.47;7302339;19;21264;-67
2024/01/07 10:54:42;;;;;;;;;;;;;;;5.87;75.71;102252.97;7305992;19;20259;-67
2024/01/07 10:57:21;;;;;;;;;;;;;;;5.92;76.02;102246.56;7298738;19;19986;-67
2024/01/07 10:59:49;;;;;;;;;;;;;;;6.01;76.29;102253.88;7305069;19;20602;-67
2024/01/07 11:02:18;;;;;;;;;;;;;;;6.03;74.16;102251.19;7288307;19;22367;-67
2024/01/07 11:05:10;;;;;;;;;;;;;;;6.11;72.89;102256.78;7298724;19;21488;-66
2024/01/07 11:07:41;;;;;;;;;;;;;;;6.12;70.39;102253.25;7295841;19;20283;-65
2024/01/07 11:10:19;;;;;;;;;;;;;;;6.06;70.56;102265.81;7299652;19;20502;-67
2024/01/07 11:12:59;;;;;;;;;;;;;;;6.05;69.77;102258.91;7289990;19;19927;-67
2024/01/07 11:15:45;;;;;;;;;;;;;;;6.07;71.71;102268.34;7298157;19;20262;-66
2024/01/07 11:18:17;;;;;;;;;;;;;;;6.08;69.88;102267.44;7293608;19;20019;-65
2024/01/07 11:20:45;;;;;;;;;;;;;;;6.09;66.24;102276.09;7309252;19;19994;-65
2024/01/07 11:23:30;;;;;;;;;;;;;;;6.13;67.86;102281.06;7296011;19;20018;-67
2024/01/07 11:26:00;;;;;;;;;;;;;;;6.11;66.04;102289.91;7307566;19;21240;-67
2024/01/07 11:28:43;;;;;;;;;;;;;;;6.14;66.85;102279.31;7305047;19;19918;-66
2024/01/07 11:31:11;;;;;;;;;;;;;;;6.13;65.33;102294.13;7301183;19;20545;-66
2024/01/07 11:33:48;;;;;;;;;;;;;;;6.10;65.20;102294.28;7303063;19;19915;-66
2024/01/07 11:36:19;;;;;;;;;;;;;;;6.13;66.19;102293.28;7294224;19;19925;-67
2024/01/07 11:38:49;;;;;;;;;;;;;;;6.18;65.24;102284.25;7308816;19;19929;-67
2024/01/07 11:41:21;;;;;;;;;;;;;;;6.18;65.27;102294.72;7297464;19;20058;-65
2024/01/07 11:43:54;;;;;;;;;;;;;;;6.24;65.20;102290.91;7292903;19;19938;-66
2024/01/07 11:46:26;;;;;;;;;;;;;;;6.15;63.97;102302.69;7302034;19;19922;-65
2024/01/07 11:48:58;;;;;;;;;;;;;;;6.14;65.63;102298.44;7290274;19;19911;-66
2024/01/07 11:51:26;;;;;;;;;;;;;;;6.15;64.64;102302.69;7311289;19;20221;-67
2024/01/07 11:53:58;;;;;;;;;;;;;;;6.18;65.42;102302.56;7310667;19;19931;-67
2024/01/07 11:56:30;;;;;;;;;;;;;;;6.24;64.59;102311.81;7298865;19;20801;-66
2024/01/07 11:58:59;;;;;;;;;;;;;;;6.26;64.14;102297.72;7292208;19;20102;-67
2024/01/07 12:01:27;;;;;;;;;;;;;;;6.23;63.93;102310.97;7292798;19;20248;-66
2024/01/07 12:04:02;;;;;;;;;;;;;;;6.18;63.97;102301.69;7299293;19;20280;-67
2024/01/07 12:06:32;;;;;;;;;;;;;;;6.24;65.30;102310.03;7282606;19;19935;-66
2024/01/07 12:09:00;;;;;;;;;;;;;;;6.27;64.09;102309.84;7285501;19;19925;-68
2024/01/07 12:11:28;;;;;;;;;;;;;;;6.32;63.73;102302.59;7292132;19;20466;-66
2024/01/07 12:13:56;;;;;;;;;;;;;;;6.43;64.38;102307.19;7311080;19;19954;-67
2024/01/07 12:16:23;;;;;;;;;;;;;;;6.44;62.32;102304.50;7296266;19;19923;-65
2024/01/07 12:18:55;;;;;;;;;;;;;;;6.36;63.22;102300.63;7301759;19;21256;-67
2024/01/07 12:21:22;;;;;;;;;;;;;;;6.39;63.32;102303.09;7293045;19;19925;-66
2024/01/07 12:23:53;;;;;;;;;;;;;;;6.45;63.33;102316.63;7304554;19;19926;-67
2024/01/07 12:26:21;;;;;;;;;;;;;;;6.47;62.73;102319.16;7300995;19;19957;-66
2024/01/07 12:28:52;;;;;;;;;;;;;;;6.51;63.70;102298.88;7301849;19;20496;-66
2024/01/07 12:31:20;;;;;;;;;;;;;;;6.56;63.08;102305.53;7292603;19;20755;-66
2024/01/07 12:33:54;;;;;;;;;;;;;;;6.57;63.50;102303.75;7306225;19;20609;-66
2024/01/07 12:36:24;;;;;;;;;;;;;;;6.60;64.08;102298.38;7297720;19;19927;-66
2024/01/07 12:38:54;;;;;;;;;;;;;;;6.63;65.51;102309.47;7298617;19;20809;-66
2024/01/07 12:41:22;;;;;;;;;;;;;;;6.68;63.73;102311.81;7286448;19;19957;-65
2024/01/07 12:43:50;;;;;;;;;;;;;;;6.61;62.64;102302.66;7286986;19;20163;-66
2024/01/07 12:46:19;;;;;;;;;;;;;;;6.61;62.87;102300.88;7280614;19;20688;-66
2024/01/07 12:48:48;;;;;;;;;;;;;;;6.60;63.93;102295.75;7288663;19;19927;-65
2024/01/07 12:51:16;;;;;;;;;;;;;;;6.56;63.88;102302.06;7285434;19;20063;-65
2024/01/07 12:53:50;;;;;;;;;;;;;;;6.59;63.47;102310.59;7296058;19;19914;-66